Aviation Digital Data Service (ADDS)

Output produced by METARs form (0845 UTC 25 October 2014)
found at http://www.aviationweather.gov/adds/metars/
 
KIPT 250754Z AUTO 00000KT 10SM CLR 05/01 A2993 RMK AO2 SLP136 T00500006
KIPT 250654Z AUTO 34005KT 10SM CLR 06/01 A2994 RMK AO2 SLP137 T00610006
KIPT 250554Z AUTO 28006KT 10SM CLR 08/02 A2993 RMK AO2 SLP134 T00780017 10156 20072 58002
KIPT 250454Z AUTO 27005KT 10SM CLR 08/01 A2993 RMK AO2 SLP135 T00830011 402170083
KIPT 250354Z AUTO 28008KT 10SM CLR 10/01 A2993 RMK AO2 SLP136 T01000011
KIPT 250254Z AUTO 28008KT 10SM CLR 11/01 A2993 RMK AO2 SLP135 T01110006 51012
KIPT 250154Z 28006KT 10SM CLR 11/M01 A2992 RMK AO2 SLP133 T01061011
KIPT 250054Z 27006KT 10SM CLR 12/M01 A2991 RMK AO2 SLP129 T01221006
KIPT 242354Z 29005KT 10SM CLR 15/M02 A2990 RMK AO2 SLP123 T01501017 10217 20144 53016
KIPT 242254Z 31008KT 10SM CLR 17/M02 A2988 RMK AO2 SLP117 T01721017
KIPT 242154Z 34004KT 10SM CLR 18/M02 A2986 RMK AO2 SLP111 T01781022
KIPT 242054Z 33006KT 10SM CLR 19/M04 A2985 RMK AO2 SLP106 T01891039 55005
KIPT 241954Z 29010KT 10SM CLR 21/M04 A2984 RMK AO2 SLP105 T02111039
KIPT 241854Z 31013G18KT 10SM CLR 22/M01 A2985 RMK AO2 SLP107 T02171011
KIPT 241754Z 32007G15KT 10SM CLR 21/03 A2986 RMK AO2 SLP111 T02110033 10211 20117 58024
KIPT 241654Z 28008G15KT 10SM CLR 19/04 A2990 RMK AO2 SLP122 T01940044
KIPT 241554Z 30008G15KT 10SM CLR 18/04 A2992 RMK AO2 SLP130 T01780039
KIPT 241454Z 28012KT 10SM CLR 16/03 A2993 RMK AO2 SLP136 T01610028 50000
KIPT 241354Z 26015KT 10SM CLR 13/04 A2994 RMK AO2 SLP139 T01330039
KIPT 241254Z 26011KT 10SM SCT039 12/05 A2994 RMK AO2 SLP139 T01220050
KIPT 241154Z 27009KT 10SM FEW038 12/06 A2993 RMK AO2 SLP136 T01170056 10133 20106 51003
KIPT 241054Z 27009KT 10SM FEW043 12/05 A2993 RMK AO2 SLP136 T01220050
KIPT 240954Z AUTO 27012KT 10SM OVC044 13/06 A2993 RMK AO2 SLP135 T01280056
KIPT 240854Z AUTO 28007KT 10SM OVC033 13/06 A2992 RMK AO2 SLP133 T01280061 51007
KIPT 240754Z AUTO 30009KT 10SM BKN033 OVC040 13/06 A2991 RMK AO2 SLP129 T01280061
KIPT 240731Z AUTO 31010G20KT 10SM OVC030 13/06 A2991 RMK AO2 T01330061
KIPT 240654Z AUTO 32010KT 10SM OVC029 13/06 A2992 RMK AO2 SLP131 T01330061
KIPT 240637Z AUTO 31008KT 10SM OVC029 13/06 A2992 RMK AO2 T01330061
KIPT 240554Z AUTO 30009KT 10SM OVC033 13/06 A2990 RMK AO2 SLP126 T01330056 10144 20133 56005
KIPT 240454Z AUTO 31011G15KT 10SM OVC033 13/06 A2990 RMK AO2 SLP126 T01330056 401560100
KIPT 240354Z AUTO 31007KT 10SM OVC039 14/05 A2991 RMK AO2 SLP129 T01390050
KIPT 240254Z AUTO 32008KT 10SM OVC043 14/04 A2992 RMK AO2 SLP131 T01440044 53004
KIPT 240154Z 31014G21KT 10SM OVC045 14/04 A2991 RMK AO2 SLP129 T01440039
KIPT 240054Z 31012G20KT 10SM OVC048 14/03 A2991 RMK AO2 SLP130 T01440033
KIPT 232354Z 33012KT 10SM OVC046 14/04 A2991 RMK AO2 SLP128 T01440039 10156 20139 51016
KIPT 232254Z 33007KT 10SM OVC042 15/05 A2990 RMK AO2 SLP125 T01500050
KIPT 232154Z 33009KT 10SM OVC039 15/06 A2988 RMK AO2 SLP119 T01500061
KIPT 232054Z 33007KT 10SM OVC037 16/06 A2986 RMK AO2 SLP112 T01560061 56009